sensor_id;sensor_type;location;lat;lon;timestamp;pressure;altitude;pressure_sealevel;temperature;humidity
60642;BME280;46837;52.446;-1.930;2022-12-13T00:00:09;99537.80;;;0.96;84.65
60642;BME280;46837;52.446;-1.930;2022-12-13T00:01:15;99540.17;;;0.98;84.79
60642;BME280;46837;52.446;-1.930;2022-12-13T00:02:09;99539.95;;;1.00;84.73
60642;BME280;46837;52.446;-1.930;2022-12-13T00:03:09;99541.74;;;0.99;84.63
60642;BME280;46837;52.446;-1.930;2022-12-13T00:04:09;99541.37;;;1.06;84.82
60642;BME280;46837;52.446;-1.930;2022-12-13T00:05:09;99543.80;;;1.07;84.52
60642;BME280;46837;52.446;-1.930;2022-12-13T00:06:09;99545.24;;;1.08;84.40
60642;BME280;46837;52.446;-1.930;2022-12-13T00:07:09;99545.29;;;1.10;84.34
60642;BME280;46837;52.446;-1.930;2022-12-13T00:08:09;99548.61;;;1.12;84.17
60642;BME280;46837;52.446;-1.930;2022-12-13T00:09:09;99546.52;;;1.14;84.16
60642;BME280;46837;52.446;-1.930;2022-12-13T00:10:09;99542.13;;;1.09;83.95
60642;BME280;46837;52.446;-1.930;2022-12-13T00:11:10;99541.97;;;1.11;84.09
60642;BME280;46837;52.446;-1.930;2022-12-13T00:12:09;99538.21;;;1.06;84.03
60642;BME280;46837;52.446;-1.930;2022-12-13T00:13:09;99536.17;;;1.10;84.25
60642;BME280;46837;52.446;-1.930;2022-12-13T00:14:09;99537.54;;;1.05;84.06
60642;BME280;46837;52.446;-1.930;2022-12-13T00:15:09;99536.53;;;1.04;84.28
60642;BME280;46837;52.446;-1.930;2022-12-13T00:16:10;99537.39;;;1.05;84.43
60642;BME280;46837;52.446;-1.930;2022-12-13T00:17:09;99538.75;;;1.04;84.45
60642;BME280;46837;52.446;-1.930;2022-12-13T00:18:09;99535.25;;;1.01;84.55
60642;BME280;46837;52.446;-1.930;2022-12-13T00:19:09;99536.39;;;1.03;84.99
60642;BME280;46837;52.446;-1.930;2022-12-13T00:20:09;99534.96;;;1.05;85.10
60642;BME280;46837;52.446;-1.930;2022-12-13T00:21:12;99532.04;;;1.06;84.90
60642;BME280;46837;52.446;-1.930;2022-12-13T00:22:09;99527.54;;;0.99;84.44
60642;BME280;46837;52.446;-1.930;2022-12-13T00:23:09;99528.27;;;1.01;84.79
60642;BME280;46837;52.446;-1.930;2022-12-13T00:24:09;99528.39;;;1.03;84.86
60642;BME280;46837;52.446;-1.930;2022-12-13T00:25:09;99525.19;;;1.06;84.73
60642;BME280;46837;52.446;-1.930;2022-12-13T00:26:13;99526.77;;;1.10;84.62
60642;BME280;46837;52.446;-1.930;2022-12-13T00:27:09;99522.13;;;1.08;84.38
60642;BME280;46837;52.446;-1.930;2022-12-13T00:28:09;99523.38;;;1.03;84.33
60642;BME280;46837;52.446;-1.930;2022-12-13T00:29:10;99523.73;;;1.09;84.57
60642;BME280;46837;52.446;-1.930;2022-12-13T00:30:09;99523.48;;;1.11;84.42
60642;BME280;46837;52.446;-1.930;2022-12-13T00:31:09;99525.19;;;1.06;84.28
60642;BME280;46837;52.446;-1.930;2022-12-13T00:32:09;99521.76;;;0.99;84.21
60642;BME280;46837;52.446;-1.930;2022-12-13T00:33:09;99527.38;;;1.01;84.55
60642;BME280;46837;52.446;-1.930;2022-12-13T00:34:09;99526.46;;;0.96;84.37
60642;BME280;46837;52.446;-1.930;2022-12-13T00:35:09;99525.02;;;0.95;84.54
60642;BME280;46837;52.446;-1.930;2022-12-13T00:36:09;99523.72;;;1.02;84.71
60642;BME280;46837;52.446;-1.930;2022-12-13T00:37:09;99520.70;;;0.98;84.48
60642;BME280;46837;52.446;-1.930;2022-12-13T00:38:09;99518.45;;;1.04;84.67
60642;BME280;46837;52.446;-1.930;2022-12-13T00:39:09;99515.91;;;1.01;84.41
60642;BME280;46837;52.446;-1.930;2022-12-13T00:40:09;99513.66;;;1.03;84.63
60642;BME280;46837;52.446;-1.930;2022-12-13T00:41:16;99519.23;;;1.01;84.27
60642;BME280;46837;52.446;-1.930;2022-12-13T00:42:09;99517.76;;;0.91;84.23
60642;BME280;46837;52.446;-1.930;2022-12-13T00:43:09;99514.85;;;0.91;84.60
60642;BME280;46837;52.446;-1.930;2022-12-13T00:44:09;99517.64;;;0.95;84.65
60642;BME280;46837;52.446;-1.930;2022-12-13T00:45:09;99513.79;;;0.96;84.67
60642;BME280;46837;52.446;-1.930;2022-12-13T00:46:14;99512.57;;;0.98;84.79
60642;BME280;46837;52.446;-1.930;2022-12-13T00:47:09;99508.53;;;0.90;84.44
60642;BME280;46837;52.446;-1.930;2022-12-13T00:48:09;99507.73;;;0.79;84.82
60642;BME280;46837;52.446;-1.930;2022-12-13T00:49:09;99510.56;;;0.85;85.16
60642;BME280;46837;52.446;-1.930;2022-12-13T00:50:09;99507.96;;;0.84;84.88
60642;BME280;46837;52.446;-1.930;2022-12-13T00:51:09;99509.09;;;0.86;85.01
60642;BME280;46837;52.446;-1.930;2022-12-13T00:52:09;99505.33;;;0.91;84.95
60642;BME280;46837;52.446;-1.930;2022-12-13T00:53:09;99507.22;;;0.95;84.73
60642;BME280;46837;52.446;-1.930;2022-12-13T00:54:09;99504.18;;;0.98;84.48
60642;BME280;46837;52.446;-1.930;2022-12-13T00:55:09;99508.30;;;0.96;84.46
60642;BME280;46837;52.446;-1.930;2022-12-13T00:56:15;99505.18;;;0.97;84.57
60642;BME280;46837;52.446;-1.930;2022-12-13T00:57:09;99504.67;;;0.96;84.30
60642;BME280;46837;52.446;-1.930;2022-12-13T00:58:09;99505.46;;;0.82;84.45
60642;BME280;46837;52.446;-1.930;2022-12-13T00:59:09;99505.61;;;0.87;84.89
60642;BME280;46837;52.446;-1.930;2022-12-13T01:00:09;99504.93;;;0.91;85.00
60642;BME280;46837;52.446;-1.930;2022-12-13T01:01:10;99507.77;;;0.92;84.70
60642;BME280;46837;52.446;-1.930;2022-12-13T01:02:09;99509.73;;;0.93;84.56
60642;BME280;46837;52.446;-1.930;2022-12-13T01:03:13;99513.04;;;0.97;84.66
60642;BME280;46837;52.446;-1.930;2022-12-13T01:04:09;99512.40;;;0.90;84.33
60642;BME280;46837;52.446;-1.930;2022-12-13T01:05:09;99513.22;;;0.89;84.49
60642;BME280;46837;52.446;-1.930;2022-12-13T01:06:13;99515.95;;;0.86;84.45
60642;BME280;46837;52.446;-1.930;2022-12-13T01:07:09;99516.07;;;0.84;84.52
60642;BME280;46837;52.446;-1.930;2022-12-13T01:08:09;99513.97;;;0.77;84.43
60642;BME280;46837;52.446;-1.930;2022-12-13T01:09:16;99517.39;;;0.80;84.64
60642;BME280;46837;52.446;-1.930;2022-12-13T01:10:09;99516.73;;;0.71;84.47
60642;BME280;46837;52.446;-1.930;2022-12-13T01:11:09;99516.00;;;0.71;84.65
60642;BME280;46837;52.446;-1.930;2022-12-13T01:12:09;99516.07;;;0.79;84.79
60642;BME280;46837;52.446;-1.930;2022-12-13T01:13:09;99517.98;;;0.83;84.52
60642;BME280;46837;52.446;-1.930;2022-12-13T01:14:09;99513.73;;;0.81;84.33
60642;BME280;46837;52.446;-1.930;2022-12-13T01:15:09;99515.39;;;0.81;84.41
60642;BME280;46837;52.446;-1.930;2022-12-13T01:16:09;99514.73;;;0.72;84.31
60642;BME280;46837;52.446;-1.930;2022-12-13T01:17:09;99513.81;;;0.70;84.52
60642;BME280;46837;52.446;-1.930;2022-12-13T01:18:09;99513.73;;;0.75;84.71
60642;BME280;46837;52.446;-1.930;2022-12-13T01:19:09;99513.45;;;0.81;84.66
60642;BME280;46837;52.446;-1.930;2022-12-13T01:20:09;99512.07;;;0.75;84.27
60642;BME280;46837;52.446;-1.930;2022-12-13T01:21:14;99509.90;;;0.81;84.51
60642;BME280;46837;52.446;-1.930;2022-12-13T01:22:09;99510.22;;;0.79;84.30
60642;BME280;46837;52.446;-1.930;2022-12-13T01:23:09;99510.07;;;0.71;83.98
60642;BME280;46837;52.446;-1.930;2022-12-13T01:24:09;99513.21;;;0.74;84.26
60642;BME280;46837;52.446;-1.930;2022-12-13T01:25:09;99511.14;;;0.75;84.21
60642;BME280;46837;52.446;-1.930;2022-12-13T01:26:13;99507.67;;;0.70;84.13
60642;BME280;46837;52.446;-1.930;2022-12-13T01:27:09;99509.79;;;0.69;84.20
60642;BME280;46837;52.446;-1.930;2022-12-13T01:28:09;99507.56;;;0.65;84.19
60642;BME280;46837;52.446;-1.930;2022-12-13T01:29:09;99506.61;;;0.64;84.35
60642;BME280;46837;52.446;-1.930;2022-12-13T01:30:09;99504.34;;;0.63;84.33
60642;BME280;46837;52.446;-1.930;2022-12-13T01:31:10;99507.83;;;0.66;84.41
60642;BME280;46837;52.446;-1.930;2022-12-13T01:32:09;99509.59;;;0.64;84.24
60642;BME280;46837;52.446;-1.930;2022-12-13T01:33:09;99506.25;;;0.64;84.22
60642;BME280;46837;52.446;-1.930;2022-12-13T01:34:12;99508.04;;;0.63;84.06
60642;BME280;46837;52.446;-1.930;2022-12-13T01:35:09;99506.90;;;0.66;84.23
60642;BME280;46837;52.446;-1.930;2022-12-13T01:36:10;99504.79;;;0.62;84.08
60642;BME280;46837;52.446;-1.930;2022-12-13T01:37:09;99507.90;;;0.69;84.25
60642;BME280;46837;52.446;-1.930;2022-12-13T01:38:09;99510.63;;;0.72;84.01
60642;BME280;46837;52.446;-1.930;2022-12-13T01:39:09;99510.40;;;0.71;83.85
60642;BME280;46837;52.446;-1.930;2022-12-13T01:40:09;99515.82;;;0.61;83.63
60642;BME280;46837;52.446;-1.930;2022-12-13T01:41:12;99518.05;;;0.63;84.15
60642;BME280;46837;52.446;-1.930;2022-12-13T01:42:10;99513.03;;;0.59;83.89
60642;BME280;46837;52.446;-1.930;2022-12-13T01:43:13;99510.05;;;0.58;84.22
60642;BME280;46837;52.446;-1.930;2022-12-13T01:45:24;99510.72;;;0.64;84.11
60642;BME280;46837;52.446;-1.930;2022-12-13T01:46:09;99511.35;;;0.65;84.17
60642;BME280;46837;52.446;-1.930;2022-12-13T01:47:09;99515.63;;;0.72;84.26
60642;BME280;46837;52.446;-1.930;2022-12-13T01:48:13;99516.32;;;0.76;84.00
60642;BME280;46837;52.446;-1.930;2022-12-13T01:49:12;99522.83;;;0.80;83.84
60642;BME280;46837;52.446;-1.930;2022-12-13T01:50:17;99523.27;;;0.75;83.47
60642;BME280;46837;52.446;-1.930;2022-12-13T01:51:09;99522.20;;;0.79;83.60
60642;BME280;46837;52.446;-1.930;2022-12-13T01:52:09;99526.34;;;0.75;83.52
60642;BME280;46837;52.446;-1.930;2022-12-13T01:53:10;99525.59;;;0.77;83.76
60642;BME280;46837;52.446;-1.930;2022-12-13T01:54:11;99526.56;;;0.84;83.78
60642;BME280;46837;52.446;-1.930;2022-12-13T01:55:09;99527.57;;;0.77;83.39
60642;BME280;46837;52.446;-1.930;2022-12-13T01:56:14;99528.01;;;0.70;83.60
60642;BME280;46837;52.446;-1.930;2022-12-13T01:57:09;99528.29;;;0.77;84.02
60642;BME280;46837;52.446;-1.930;2022-12-13T01:58:09;99530.24;;;0.76;83.72
60642;BME280;46837;52.446;-1.930;2022-12-13T01:59:09;99529.62;;;0.72;83.92
60642;BME280;46837;52.446;-1.930;2022-12-13T02:00:09;99530.89;;;0.76;84.06
60642;BME280;46837;52.446;-1.930;2022-12-13T02:01:09;99533.07;;;0.76;83.91
60642;BME280;46837;52.446;-1.930;2022-12-13T02:02:09;99535.31;;;0.72;83.88
60642;BME280;46837;52.446;-1.930;2022-12-13T02:03:09;99531.24;;;0.77;84.12
60642;BME280;46837;52.446;-1.930;2022-12-13T02:04:09;99534.12;;;0.78;83.71
60642;BME280;46837;52.446;-1.930;2022-12-13T02:07:09;99539.39;;;0.76;83.53
60642;BME280;46837;52.446;-1.930;2022-12-13T02:08:10;99545.95;;;0.82;83.51
60642;BME280;46837;52.446;-1.930;2022-12-13T02:09:09;99548.75;;;0.83;83.25
60642;BME280;46837;52.446;-1.930;2022-12-13T02:10:09;99546.60;;;0.87;83.32
60642;BME280;46837;52.446;-1.930;2022-12-13T02:11:09;99548.41;;;0.91;83.15
60642;BME280;46837;52.446;-1.930;2022-12-13T02:12:09;99547.29;;;0.95;83.05
60642;BME280;46837;52.446;-1.930;2022-12-13T02:13:09;99545.89;;;0.99;82.85
60642;BME280;46837;52.446;-1.930;2022-12-13T02:14:09;99548.59;;;0.97;82.65
60642;BME280;46837;52.446;-1.930;2022-12-13T02:15:12;99549.93;;;0.97;82.69
60642;BME280;46837;52.446;-1.930;2022-12-13T02:16:17;99553.16;;;0.92;82.62
60642;BME280;46837;52.446;-1.930;2022-12-13T02:17:21;99552.66;;;0.95;82.79
60642;BME280;46837;52.446;-1.930;2022-12-13T02:18:20;99558.57;;;0.91;82.55
60642;BME280;46837;52.446;-1.930;2022-12-13T02:21:19;99559.97;;;0.83;82.46
60642;BME280;46837;52.446;-1.930;2022-12-13T02:31:18;99560.52;;;0.65;83.02
60642;BME280;46837;52.446;-1.930;2022-12-13T02:34:15;99556.30;;;0.76;82.88
60642;BME280;46837;52.446;-1.930;2022-12-13T02:35:11;99557.11;;;0.78;82.82
60642;BME280;46837;52.446;-1.930;2022-12-13T02:36:11;99560.81;;;0.79;82.92
60642;BME280;46837;52.446;-1.930;2022-12-13T02:38:15;99558.62;;;0.84;82.72
60642;BME280;46837;52.446;-1.930;2022-12-13T02:40:20;99554.64;;;0.93;82.66
60642;BME280;46837;52.446;-1.930;2022-12-13T02:41:17;99557.50;;;0.95;82.57
60642;BME280;46837;52.446;-1.930;2022-12-13T02:42:15;99557.12;;;0.94;82.37
60642;BME280;46837;52.446;-1.930;2022-12-13T02:45:20;99563.72;;;0.99;82.43
60642;BME280;46837;52.446;-1.930;2022-12-13T02:46:09;99562.93;;;1.01;82.46
60642;BME280;46837;52.446;-1.930;2022-12-13T02:47:13;99566.77;;;0.89;82.15
60642;BME280;46837;52.446;-1.930;2022-12-13T02:48:09;99568.97;;;0.90;82.60
60642;BME280;46837;52.446;-1.930;2022-12-13T02:49:09;99568.09;;;0.94;82.62
60642;BME280;46837;52.446;-1.930;2022-12-13T02:50:09;99567.02;;;0.93;82.25
60642;BME280;46837;52.446;-1.930;2022-12-13T02:51:09;99566.67;;;0.90;82.18
60642;BME280;46837;52.446;-1.930;2022-12-13T02:52:09;99573.27;;;0.91;82.41
60642;BME280;46837;52.446;-1.930;2022-12-13T02:53:09;99565.26;;;0.92;82.36
60642;BME280;46837;52.446;-1.930;2022-12-13T02:54:09;99567.61;;;0.94;82.39
60642;BME280;46837;52.446;-1.930;2022-12-13T02:55:12;99564.26;;;0.89;82.07
60642;BME280;46837;52.446;-1.930;2022-12-13T02:56:09;99562.87;;;0.88;82.35
60642;BME280;46837;52.446;-1.930;2022-12-13T02:58:11;99553.69;;;0.80;82.30
60642;BME280;46837;52.446;-1.930;2022-12-13T02:59:12;99558.23;;;0.83;82.48
60642;BME280;46837;52.446;-1.930;2022-12-13T03:02:16;99556.27;;;0.85;82.06
60642;BME280;46837;52.446;-1.930;2022-12-13T03:04:22;99559.88;;;0.91;82.37
60642;BME280;46837;52.446;-1.930;2022-12-13T03:07:21;99559.56;;;0.83;82.16
60642;BME280;46837;52.446;-1.930;2022-12-13T03:08:18;99559.43;;;0.86;82.11
60642;BME280;46837;52.446;-1.930;2022-12-13T03:11:10;99560.02;;;0.85;81.72
60642;BME280;46837;52.446;-1.930;2022-12-13T03:13:18;99561.73;;;0.86;81.64
60642;BME280;46837;52.446;-1.930;2022-12-13T03:14:09;99559.50;;;0.90;81.82
60642;BME280;46837;52.446;-1.930;2022-12-13T03:16:18;99550.28;;;0.91;81.51
60642;BME280;46837;52.446;-1.930;2022-12-13T03:17:09;99548.58;;;0.91;81.69
60642;BME280;46837;52.446;-1.930;2022-12-13T03:18:12;99549.36;;;0.83;81.62
60642;BME280;46837;52.446;-1.930;2022-12-13T03:19:09;99547.89;;;0.70;81.97
60642;BME280;46837;52.446;-1.930;2022-12-13T03:20:09;99549.23;;;0.71;82.32
60642;BME280;46837;52.446;-1.930;2022-12-13T03:21:09;99549.63;;;0.74;82.48
60642;BME280;46837;52.446;-1.930;2022-12-13T03:22:09;99551.78;;;0.69;82.36
60642;BME280;46837;52.446;-1.930;2022-12-13T03:23:10;99550.56;;;0.69;82.46
60642;BME280;46837;52.446;-1.930;2022-12-13T03:24:09;99553.88;;;0.71;82.64
60642;BME280;46837;52.446;-1.930;2022-12-13T03:25:09;99552.25;;;0.62;82.46
60642;BME280;46837;52.446;-1.930;2022-12-13T03:26:11;99553.15;;;0.63;82.71
60642;BME280;46837;52.446;-1.930;2022-12-13T03:27:09;99551.12;;;0.67;82.89
60642;BME280;46837;52.446;-1.930;2022-12-13T03:28:09;99549.85;;;0.71;82.82
60642;BME280;46837;52.446;-1.930;2022-12-13T03:29:09;99545.30;;;0.75;82.65
60642;BME280;46837;52.446;-1.930;2022-12-13T03:30:09;99549.95;;;0.74;82.41
60642;BME280;46837;52.446;-1.930;2022-12-13T03:31:09;99546.01;;;0.64;82.36
60642;BME280;46837;52.446;-1.930;2022-12-13T03:32:09;99550.32;;;0.62;82.47
60642;BME280;46837;52.446;-1.930;2022-12-13T03:33:09;99546.87;;;0.68;82.67
60642;BME280;46837;52.446;-1.930;2022-12-13T03:34:09;99543.64;;;0.73;82.56
60642;BME280;46837;52.446;-1.930;2022-12-13T03:35:09;99548.35;;;0.71;82.24
60642;BME280;46837;52.446;-1.930;2022-12-13T03:36:09;99551.45;;;0.67;82.28
60642;BME280;46837;52.446;-1.930;2022-12-13T03:37:09;99547.10;;;0.67;82.31
60642;BME280;46837;52.446;-1.930;2022-12-13T03:38:09;99547.74;;;0.67;82.09
60642;BME280;46837;52.446;-1.930;2022-12-13T03:39:09;99547.26;;;0.67;82.18
60642;BME280;46837;52.446;-1.930;2022-12-13T03:40:09;99549.95;;;0.65;82.04
60642;BME280;46837;52.446;-1.930;2022-12-13T03:41:15;99542.58;;;0.67;82.15
60642;BME280;46837;52.446;-1.930;2022-12-13T03:42:09;99538.57;;;0.56;81.67
60642;BME280;46837;52.446;-1.930;2022-12-13T03:43:10;99540.80;;;0.62;82.21
60642;BME280;46837;52.446;-1.930;2022-12-13T03:44:09;99540.07;;;0.64;82.01
60642;BME280;46837;52.446;-1.930;2022-12-13T03:45:09;99540.22;;;0.65;81.90
60642;BME280;46837;52.446;-1.930;2022-12-13T03:46:09;99541.60;;;0.67;81.82
60642;BME280;46837;52.446;-1.930;2022-12-13T03:47:09;99540.87;;;0.67;81.71
60642;BME280;46837;52.446;-1.930;2022-12-13T03:48:09;99542.14;;;0.64;81.68
60642;BME280;46837;52.446;-1.930;2022-12-13T03:49:09;99536.24;;;0.67;82.01
60642;BME280;46837;52.446;-1.930;2022-12-13T03:50:10;99537.95;;;0.68;81.95
60642;BME280;46837;52.446;-1.930;2022-12-13T03:51:09;99532.79;;;0.64;81.89
60642;BME280;46837;52.446;-1.930;2022-12-13T03:52:09;99532.58;;;0.67;82.00
60642;BME280;46837;52.446;-1.930;2022-12-13T03:53:09;99529.00;;;0.66;81.92
60642;BME280;46837;52.446;-1.930;2022-12-13T03:54:09;99531.55;;;0.63;81.85
60642;BME280;46837;52.446;-1.930;2022-12-13T03:55:09;99527.89;;;0.65;82.07
60642;BME280;46837;52.446;-1.930;2022-12-13T03:56:09;99527.98;;;0.71;82.09
60642;BME280;46837;52.446;-1.930;2022-12-13T03:57:09;99527.88;;;0.73;82.00
60642;BME280;46837;52.446;-1.930;2022-12-13T03:58:09;99530.16;;;0.74;81.97
60642;BME280;46837;52.446;-1.930;2022-12-13T03:59:09;99532.30;;;0.68;81.87
60642;BME280;46837;52.446;-1.930;2022-12-13T04:00:09;99532.57;;;0.70;81.87
60642;BME280;46837;52.446;-1.930;2022-12-13T04:01:10;99530.06;;;0.72;81.93
60642;BME280;46837;52.446;-1.930;2022-12-13T04:02:09;99531.59;;;0.66;81.64
60642;BME280;46837;52.446;-1.930;2022-12-13T04:03:09;99532.55;;;0.66;81.86
60642;BME280;46837;52.446;-1.930;2022-12-13T04:04:09;99533.52;;;0.66;81.85
60642;BME280;46837;52.446;-1.930;2022-12-13T04:05:09;99530.16;;;0.67;81.81
60642;BME280;46837;52.446;-1.930;2022-12-13T04:06:09;99533.48;;;0.66;81.83
60642;BME280;46837;52.446;-1.930;2022-12-13T04:07:09;99531.32;;;0.63;81.57
60642;BME280;46837;52.446;-1.930;2022-12-13T04:08:09;99529.47;;;0.64;81.55
60642;BME280;46837;52.446;-1.930;2022-12-13T04:09:09;99531.14;;;0.61;81.39
60642;BME280;46837;52.446;-1.930;2022-12-13T04:10:09;99532.05;;;0.64;81.72
60642;BME280;46837;52.446;-1.930;2022-12-13T04:11:13;99532.24;;;0.58;81.31
60642;BME280;46837;52.446;-1.930;2022-12-13T04:12:13;99534.43;;;0.52;81.53
60642;BME280;46837;52.446;-1.930;2022-12-13T04:13:13;99532.82;;;0.54;81.79
60642;BME280;46837;52.446;-1.930;2022-12-13T04:14:09;99533.67;;;0.59;81.90
60642;BME280;46837;52.446;-1.930;2022-12-13T04:15:09;99536.79;;;0.53;81.55
60642;BME280;46837;52.446;-1.930;2022-12-13T04:16:09;99540.32;;;0.47;81.79
60642;BME280;46837;52.446;-1.930;2022-12-13T04:17:09;99535.67;;;0.48;82.05
60642;BME280;46837;52.446;-1.930;2022-12-13T04:18:09;99535.88;;;0.50;82.04
60642;BME280;46837;52.446;-1.930;2022-12-13T04:19:09;99530.86;;;0.51;82.11
60642;BME280;46837;52.446;-1.930;2022-12-13T04:20:09;99531.57;;;0.59;82.22
60642;BME280;46837;52.446;-1.930;2022-12-13T04:21:09;99530.87;;;0.55;81.85
60642;BME280;46837;52.446;-1.930;2022-12-13T04:22:09;99530.91;;;0.45;81.91
60642;BME280;46837;52.446;-1.930;2022-12-13T04:23:09;99529.74;;;0.38;82.00
60642;BME280;46837;52.446;-1.930;2022-12-13T04:24:09;99531.23;;;0.38;82.27
60642;BME280;46837;52.446;-1.930;2022-12-13T04:25:09;99525.34;;;0.41;82.28
60642;BME280;46837;52.446;-1.930;2022-12-13T04:26:09;99530.49;;;0.44;82.18
60642;BME280;46837;52.446;-1.930;2022-12-13T04:27:09;99536.16;;;0.37;82.10
60642;BME280;46837;52.446;-1.930;2022-12-13T04:28:09;99528.67;;;0.36;82.37
60642;BME280;46837;52.446;-1.930;2022-12-13T04:29:09;99532.27;;;0.41;82.41
60642;BME280;46837;52.446;-1.930;2022-12-13T04:30:09;99528.22;;;0.47;82.47
60642;BME280;46837;52.446;-1.930;2022-12-13T04:31:09;99530.65;;;0.54;82.28
60642;BME280;46837;52.446;-1.930;2022-12-13T04:32:09;99527.10;;;0.54;81.88
60642;BME280;46837;52.446;-1.930;2022-12-13T04:33:09;99525.75;;;0.50;81.72
60642;BME280;46837;52.446;-1.930;2022-12-13T04:34:09;99530.88;;;0.57;82.10
60642;BME280;46837;52.446;-1.930;2022-12-13T04:35:09;99526.68;;;0.62;81.78
60642;BME280;46837;52.446;-1.930;2022-12-13T04:36:09;99524.35;;;0.62;81.65
60642;BME280;46837;52.446;-1.930;2022-12-13T04:37:09;99527.87;;;0.66;81.72
60642;BME280;46837;52.446;-1.930;2022-12-13T04:38:09;99526.25;;;0.54;81.41
60642;BME280;46837;52.446;-1.930;2022-12-13T04:39:09;99525.65;;;0.46;81.71
60642;BME280;46837;52.446;-1.930;2022-12-13T04:40:09;99520.95;;;0.40;81.87
60642;BME280;46837;52.446;-1.930;2022-12-13T04:41:13;99521.49;;;0.45;82.19
60642;BME280;46837;52.446;-1.930;2022-12-13T04:42:09;99521.46;;;0.36;81.90
60642;BME280;46837;52.446;-1.930;2022-12-13T04:43:09;99519.55;;;0.32;82.33
60642;BME280;46837;52.446;-1.930;2022-12-13T04:44:09;99516.21;;;0.31;82.50
60642;BME280;46837;52.446;-1.930;2022-12-13T04:45:11;99515.21;;;0.34;82.53
60642;BME280;46837;52.446;-1.930;2022-12-13T04:46:09;99516.61;;;0.29;82.48
60642;BME280;46837;52.446;-1.930;2022-12-13T04:47:09;99510.58;;;0.33;82.67
60642;BME280;46837;52.446;-1.930;2022-12-13T04:48:09;99513.72;;;0.36;82.39
60642;BME280;46837;52.446;-1.930;2022-12-13T04:49:09;99509.27;;;0.22;82.17
60642;BME280;46837;52.446;-1.930;2022-12-13T04:50:09;99511.32;;;0.22;82.52
60642;BME280;46837;52.446;-1.930;2022-12-13T04:51:09;99515.72;;;0.27;82.56
60642;BME280;46837;52.446;-1.930;2022-12-13T04:52:09;99511.52;;;0.28;82.44
60642;BME280;46837;52.446;-1.930;2022-12-13T04:53:13;99515.34;;;0.28;82.35
60642;BME280;46837;52.446;-1.930;2022-12-13T04:54:09;99514.77;;;0.18;82.25
60642;BME280;46837;52.446;-1.930;2022-12-13T04:55:09;99516.39;;;0.15;82.43
60642;BME280;46837;52.446;-1.930;2022-12-13T04:56:09;99512.69;;;0.11;82.59
60642;BME280;46837;52.446;-1.930;2022-12-13T04:57:10;99514.01;;;0.12;82.78
60642;BME280;46837;52.446;-1.930;2022-12-13T04:58:09;99511.67;;;0.15;82.87
60642;BME280;46837;52.446;-1.930;2022-12-13T04:59:09;99512.52;;;0.22;82.88
60642;BME280;46837;52.446;-1.930;2022-12-13T05:00:09;99510.16;;;0.19;82.57
60642;BME280;46837;52.446;-1.930;2022-12-13T05:01:11;99511.39;;;0.17;82.55
60642;BME280;46837;52.446;-1.930;2022-12-13T05:02:09;99508.42;;;0.22;82.93
60642;BME280;46837;52.446;-1.930;2022-12-13T05:03:09;99510.90;;;0.26;82.70
60642;BME280;46837;52.446;-1.930;2022-12-13T05:04:09;99511.60;;;0.22;82.53
60642;BME280;46837;52.446;-1.930;2022-12-13T05:05:09;99506.95;;;0.10;82.76
60642;BME280;46837;52.446;-1.930;2022-12-13T05:06:09;99505.86;;;0.05;82.89
60642;BME280;46837;52.446;-1.930;2022-12-13T05:07:09;99502.45;;;0.09;83.26
60642;BME280;46837;52.446;-1.930;2022-12-13T05:08:09;99502.99;;;0.19;83.29
60642;BME280;46837;52.446;-1.930;2022-12-13T05:09:09;99498.49;;;0.26;82.97
60642;BME280;46837;52.446;-1.930;2022-12-13T05:10:09;99498.04;;;0.28;82.70
60642;BME280;46837;52.446;-1.930;2022-12-13T05:11:09;99501.49;;;0.22;82.40
60642;BME280;46837;52.446;-1.930;2022-12-13T05:12:09;99498.70;;;0.12;82.14
60642;BME280;46837;52.446;-1.930;2022-12-13T05:13:09;99498.85;;;0.07;82.37
60642;BME280;46837;52.446;-1.930;2022-12-13T05:14:09;99498.00;;;0.10;82.72
60642;BME280;46837;52.446;-1.930;2022-12-13T05:15:09;99499.42;;;0.13;82.64
60642;BME280;46837;52.446;-1.930;2022-12-13T05:16:09;99498.43;;;0.09;82.56
60642;BME280;46837;52.446;-1.930;2022-12-13T05:17:09;99499.12;;;-0.03;82.52
60642;BME280;46837;52.446;-1.930;2022-12-13T05:18:09;99498.03;;;-0.08;82.93
60642;BME280;46837;52.446;-1.930;2022-12-13T05:19:09;99494.32;;;0.03;83.22
60642;BME280;46837;52.446;-1.930;2022-12-13T05:20:09;99494.81;;;0.05;82.81
60642;BME280;46837;52.446;-1.930;2022-12-13T05:21:10;99491.14;;;0.06;82.81
60642;BME280;46837;52.446;-1.930;2022-12-13T05:22:09;99493.02;;;0.09;82.77
60642;BME280;46837;52.446;-1.930;2022-12-13T05:23:09;99490.99;;;0.13;82.63
60642;BME280;46837;52.446;-1.930;2022-12-13T05:24:09;99490.71;;;0.05;82.32
60642;BME280;46837;52.446;-1.930;2022-12-13T05:25:09;99491.11;;;0.02;82.65
60642;BME280;46837;52.446;-1.930;2022-12-13T05:26:09;99490.07;;;0.02;82.76
60642;BME280;46837;52.446;-1.930;2022-12-13T05:27:09;99491.96;;;0.07;82.82
60642;BME280;46837;52.446;-1.930;2022-12-13T05:28:09;99492.13;;;0.07;82.57
60642;BME280;46837;52.446;-1.930;2022-12-13T05:29:09;99494.09;;;0.05;82.51
60642;BME280;46837;52.446;-1.930;2022-12-13T05:30:09;99496.92;;;-0.01;82.75
60642;BME280;46837;52.446;-1.930;2022-12-13T05:31:10;99496.02;;;0.00;82.79
60642;BME280;46837;52.446;-1.930;2022-12-13T05:32:09;99492.05;;;0.04;82.91
60642;BME280;46837;52.446;-1.930;2022-12-13T05:33:09;99498.43;;;0.09;82.89
60642;BME280;46837;52.446;-1.930;2022-12-13T05:34:09;99498.00;;;0.03;82.56
60642;BME280;46837;52.446;-1.930;2022-12-13T05:35:09;99499.14;;;0.02;82.78
60642;BME280;46837;52.446;-1.930;2022-12-13T05:36:09;99500.68;;;0.07;82.89
60642;BME280;46837;52.446;-1.930;2022-12-13T05:37:09;99504.04;;;0.13;82.83
60642;BME280;46837;52.446;-1.930;2022-12-13T05:38:09;99503.63;;;0.17;82.62
60642;BME280;46837;52.446;-1.930;2022-12-13T05:39:09;99504.82;;;0.20;82.46
60642;BME280;46837;52.446;-1.930;2022-12-13T05:40:09;99503.06;;;0.17;82.17
60642;BME280;46837;52.446;-1.930;2022-12-13T05:41:14;99505.75;;;0.17;82.30
60642;BME280;46837;52.446;-1.930;2022-12-13T05:42:09;99507.17;;;0.20;82.36
60642;BME280;46837;52.446;-1.930;2022-12-13T05:43:09;99506.23;;;0.20;82.47
60642;BME280;46837;52.446;-1.930;2022-12-13T05:44:09;99505.71;;;0.25;82.45
60642;BME280;46837;52.446;-1.930;2022-12-13T05:45:09;99505.95;;;0.23;82.19
60642;BME280;46837;52.446;-1.930;2022-12-13T05:46:09;99505.42;;;0.26;82.22
60642;BME280;46837;52.446;-1.930;2022-12-13T05:47:09;99501.46;;;0.24;82.12